sensor_id;sensor_type;location;lat;lon;timestamp;pressure;altitude;pressure_sealevel;temperature;humidity
43770;BME280;6597;52.218;9.882;2022-07-29T00:00:23;101059.38;;;15.36;61.08
43770;BME280;6597;52.218;9.882;2022-07-29T00:02:50;101053.13;;;15.37;61.21
43770;BME280;6597;52.218;9.882;2022-07-29T00:05:16;101057.72;;;15.34;61.46
43770;BME280;6597;52.218;9.882;2022-07-29T00:07:43;101050.66;;;15.34;61.34
43770;BME280;6597;52.218;9.882;2022-07-29T00:10:11;101047.94;;;15.36;61.50
43770;BME280;6597;52.218;9.882;2022-07-29T00:12:37;101053.22;;;15.36;61.68
43770;BME280;6597;52.218;9.882;2022-07-29T00:15:05;101049.63;;;15.37;61.89
43770;BME280;6597;52.218;9.882;2022-07-29T00:17:32;101048.63;;;15.39;61.53
43770;BME280;6597;52.218;9.882;2022-07-29T00:19:59;101049.56;;;15.38;62.04
43770;BME280;6597;52.218;9.882;2022-07-29T00:22:26;101050.50;;;15.37;61.97
43770;BME280;6597;52.218;9.882;2022-07-29T00:24:52;101044.19;;;15.40;61.83
43770;BME280;6597;52.218;9.882;2022-07-29T00:27:20;101034.63;;;15.37;62.07
43770;BME280;6597;52.218;9.882;2022-07-29T00:29:47;101036.50;;;15.35;62.30
43770;BME280;6597;52.218;9.882;2022-07-29T00:32:14;101034.09;;;15.31;62.36
43770;BME280;6597;52.218;9.882;2022-07-29T00:34:40;101027.94;;;15.30;62.34
43770;BME280;6597;52.218;9.882;2022-07-29T00:37:24;101021.63;;;15.33;62.30
43770;BME280;6597;52.218;9.882;2022-07-29T00:39:51;101024.13;;;15.36;62.17
43770;BME280;6597;52.218;9.882;2022-07-29T00:42:17;101017.19;;;15.33;62.27
43770;BME280;6597;52.218;9.882;2022-07-29T00:44:45;101028.78;;;15.31;62.43
43770;BME280;6597;52.218;9.882;2022-07-29T00:47:12;101020.97;;;15.27;62.57
43770;BME280;6597;52.218;9.882;2022-07-29T00:49:40;101016.44;;;15.31;62.48
43770;BME280;6597;52.218;9.882;2022-07-29T00:52:08;101009.09;;;15.36;62.39
43770;BME280;6597;52.218;9.882;2022-07-29T00:54:35;101008.34;;;15.34;62.22
43770;BME280;6597;52.218;9.882;2022-07-29T00:57:06;101001.34;;;15.33;62.62
43770;BME280;6597;52.218;9.882;2022-07-29T00:59:33;101003.31;;;15.28;62.75
43770;BME280;6597;52.218;9.882;2022-07-29T01:02:01;100999.38;;;15.19;62.89
43770;BME280;6597;52.218;9.882;2022-07-29T01:04:28;101001.31;;;15.16;63.25
43770;BME280;6597;52.218;9.882;2022-07-29T01:06:56;101000.53;;;15.14;63.71
43770;BME280;6597;52.218;9.882;2022-07-29T01:09:23;100993.63;;;15.11;63.90
43770;BME280;6597;52.218;9.882;2022-07-29T01:11:50;100999.06;;;15.08;64.23
43770;BME280;6597;52.218;9.882;2022-07-29T01:14:17;100990.44;;;15.05;64.04
43770;BME280;6597;52.218;9.882;2022-07-29T01:16:48;100984.34;;;15.03;64.67
43770;BME280;6597;52.218;9.882;2022-07-29T01:19:38;100979.16;;;15.01;64.69
43770;BME280;6597;52.218;9.882;2022-07-29T01:22:24;100976.84;;;14.93;64.62
43770;BME280;6597;52.218;9.882;2022-07-29T01:25:05;100979.66;;;14.90;65.12
43770;BME280;6597;52.218;9.882;2022-07-29T01:27:47;100973.59;;;14.88;65.29
43770;BME280;6597;52.218;9.882;2022-07-29T01:30:19;100972.91;;;14.85;65.69
43770;BME280;6597;52.218;9.882;2022-07-29T01:32:50;100965.91;;;14.84;65.43
43770;BME280;6597;52.218;9.882;2022-07-29T01:35:23;100970.25;;;14.85;65.74
43770;BME280;6597;52.218;9.882;2022-07-29T01:37:57;100967.59;;;14.85;66.01
43770;BME280;6597;52.218;9.882;2022-07-29T01:40:25;100972.91;;;14.85;65.94
43770;BME280;6597;52.218;9.882;2022-07-29T01:42:55;100968.53;;;14.84;65.61
43770;BME280;6597;52.218;9.882;2022-07-29T01:45:27;100972.81;;;14.86;65.31
43770;BME280;6597;52.218;9.882;2022-07-29T01:48:02;100967.53;;;14.86;65.66
43770;BME280;6597;52.218;9.882;2022-07-29T01:50:34;100967.53;;;14.86;65.89
43770;BME280;6597;52.218;9.882;2022-07-29T01:53:02;100968.63;;;14.82;66.00
43770;BME280;6597;52.218;9.882;2022-07-29T01:55:34;100966.22;;;14.78;66.12
43770;BME280;6597;52.218;9.882;2022-07-29T01:58:03;100969.94;;;14.74;66.64
43770;BME280;6597;52.218;9.882;2022-07-29T02:00:33;100969.47;;;14.66;66.75
43770;BME280;6597;52.218;9.882;2022-07-29T02:03:05;100967.94;;;14.60;67.41
43770;BME280;6597;52.218;9.882;2022-07-29T02:05:32;100967.47;;;14.52;67.25
43770;BME280;6597;52.218;9.882;2022-07-29T02:08:01;100963.09;;;14.51;67.63
43770;BME280;6597;52.218;9.882;2022-07-29T02:10:30;100957.13;;;14.47;68.24
43770;BME280;6597;52.218;9.882;2022-07-29T02:12:58;100952.63;;;14.49;67.24
43770;BME280;6597;52.218;9.882;2022-07-29T02:15:28;100949.81;;;14.52;66.93
43770;BME280;6597;52.218;9.882;2022-07-29T02:18:00;100949.97;;;14.49;67.16
43770;BME280;6597;52.218;9.882;2022-07-29T02:20:28;100949.19;;;14.47;67.04
43770;BME280;6597;52.218;9.882;2022-07-29T02:22:57;100946.13;;;14.38;66.93
43770;BME280;6597;52.218;9.882;2022-07-29T02:25:25;100946.19;;;14.36;67.66
43770;BME280;6597;52.218;9.882;2022-07-29T02:27:53;100940.13;;;14.34;67.21
43770;BME280;6597;52.218;9.882;2022-07-29T02:30:22;100943.78;;;14.31;67.29
43770;BME280;6597;52.218;9.882;2022-07-29T02:32:51;100943.81;;;14.30;68.23
43770;BME280;6597;52.218;9.882;2022-07-29T02:35:20;100939.47;;;14.29;68.03
43770;BME280;6597;52.218;9.882;2022-07-29T02:37:48;100934.25;;;14.27;68.66
43770;BME280;6597;52.218;9.882;2022-07-29T02:40:38;100937.03;;;14.24;69.23
43770;BME280;6597;52.218;9.882;2022-07-29T02:43:07;100939.53;;;14.27;68.67
43770;BME280;6597;52.218;9.882;2022-07-29T02:45:35;100936.81;;;14.29;68.60
43770;BME280;6597;52.218;9.882;2022-07-29T02:48:06;100938.53;;;14.30;68.91
43770;BME280;6597;52.218;9.882;2022-07-29T02:50:41;100936.56;;;14.35;68.88
43770;BME280;6597;52.218;9.882;2022-07-29T02:53:14;100932.91;;;14.38;68.63
43770;BME280;6597;52.218;9.882;2022-07-29T02:55:44;100944.19;;;14.41;67.82
43770;BME280;6597;52.218;9.882;2022-07-29T02:58:15;100940.75;;;14.39;67.99
43770;BME280;6597;52.218;9.882;2022-07-29T03:00:48;100936.41;;;14.38;68.19
43770;BME280;6597;52.218;9.882;2022-07-29T03:03:18;100932.97;;;14.36;69.15
43770;BME280;6597;52.218;9.882;2022-07-29T03:05:46;100933.84;;;14.37;69.21
43770;BME280;6597;52.218;9.882;2022-07-29T03:08:14;100933.69;;;14.40;68.71
43770;BME280;6597;52.218;9.882;2022-07-29T03:10:43;100922.41;;;14.36;68.53
43770;BME280;6597;52.218;9.882;2022-07-29T03:13:11;100929.56;;;14.34;68.98
43770;BME280;6597;52.218;9.882;2022-07-29T03:15:39;100928.41;;;14.40;68.73
43770;BME280;6597;52.218;9.882;2022-07-29T03:18:06;100925.69;;;14.41;68.32
43770;BME280;6597;52.218;9.882;2022-07-29T03:20:33;100928.47;;;14.38;68.44
43770;BME280;6597;52.218;9.882;2022-07-29T03:23:01;100919.78;;;14.36;69.10
43770;BME280;6597;52.218;9.882;2022-07-29T03:25:28;100922.28;;;14.39;69.05
43770;BME280;6597;52.218;9.882;2022-07-29T03:27:54;100920.72;;;14.35;68.75
43770;BME280;6597;52.218;9.882;2022-07-29T03:30:22;100919.16;;;14.31;69.33
43770;BME280;6597;52.218;9.882;2022-07-29T03:32:49;100916.56;;;14.29;69.63
43770;BME280;6597;52.218;9.882;2022-07-29T03:35:16;100926.06;;;14.33;69.00
43770;BME280;6597;52.218;9.882;2022-07-29T03:37:43;100910.16;;;14.35;69.00
43770;BME280;6597;52.218;9.882;2022-07-29T03:40:18;100919.84;;;14.35;69.15
43770;BME280;6597;52.218;9.882;2022-07-29T03:42:46;100920.88;;;14.32;69.39
43770;BME280;6597;52.218;9.882;2022-07-29T03:45:17;100923.78;;;14.26;70.05
43770;BME280;6597;52.218;9.882;2022-07-29T03:47:48;100928.28;;;14.24;69.44
43770;BME280;6597;52.218;9.882;2022-07-29T03:50:17;100924.00;;;14.21;69.56
43770;BME280;6597;52.218;9.882;2022-07-29T03:52:45;100922.91;;;14.25;69.74
43770;BME280;6597;52.218;9.882;2022-07-29T03:55:13;100916.84;;;14.23;69.46
43770;BME280;6597;52.218;9.882;2022-07-29T03:57:41;100917.06;;;14.19;70.40
43770;BME280;6597;52.218;9.882;2022-07-29T04:00:09;100918.94;;;14.17;70.54
43770;BME280;6597;52.218;9.882;2022-07-29T04:02:37;100913.56;;;14.18;70.33
43770;BME280;6597;52.218;9.882;2022-07-29T04:05:07;100917.16;;;14.17;70.68
43770;BME280;6597;52.218;9.882;2022-07-29T04:07:37;100918.94;;;14.17;71.08
43770;BME280;6597;52.218;9.882;2022-07-29T04:10:05;100914.59;;;14.16;71.48
43770;BME280;6597;52.218;9.882;2022-07-29T04:12:33;100917.38;;;14.13;71.25
43770;BME280;6597;52.218;9.882;2022-07-29T04:14:59;100920.94;;;14.12;72.12
43770;BME280;6597;52.218;9.882;2022-07-29T04:17:26;100922.50;;;14.16;71.92
43770;BME280;6597;52.218;9.882;2022-07-29T04:19:53;100934.47;;;14.23;71.83
43770;BME280;6597;52.218;9.882;2022-07-29T04:22:20;100935.25;;;14.25;71.99
43770;BME280;6597;52.218;9.882;2022-07-29T04:24:46;100929.72;;;14.31;71.65
43770;BME280;6597;52.218;9.882;2022-07-29T04:27:13;100924.28;;;14.34;70.81
43770;BME280;6597;52.218;9.882;2022-07-29T04:29:41;100916.06;;;14.40;70.37
43770;BME280;6597;52.218;9.882;2022-07-29T04:32:07;100914.34;;;14.39;70.70
43770;BME280;6597;52.218;9.882;2022-07-29T04:34:34;100916.91;;;14.41;70.91
43770;BME280;6597;52.218;9.882;2022-07-29T04:37:01;100924.91;;;14.39;70.95
43770;BME280;6597;52.218;9.882;2022-07-29T04:39:28;100925.69;;;14.41;70.96
43770;BME280;6597;52.218;9.882;2022-07-29T04:41:54;100932.66;;;14.44;71.66
43770;BME280;6597;52.218;9.882;2022-07-29T04:44:21;100929.69;;;14.50;71.71
43770;BME280;6597;52.218;9.882;2022-07-29T04:46:49;100926.75;;;14.56;71.08
43770;BME280;6597;52.218;9.882;2022-07-29T04:49:15;100923.25;;;14.55;71.15
43770;BME280;6597;52.218;9.882;2022-07-29T04:51:42;100932.91;;;14.56;70.69
43770;BME280;6597;52.218;9.882;2022-07-29T04:54:09;100933.59;;;14.60;70.95
43770;BME280;6597;52.218;9.882;2022-07-29T04:56:35;100932.47;;;14.66;70.73
43770;BME280;6597;52.218;9.882;2022-07-29T04:59:02;100931.53;;;14.67;70.87
43770;BME280;6597;52.218;9.882;2022-07-29T05:01:29;100927.03;;;14.69;71.28
43770;BME280;6597;52.218;9.882;2022-07-29T05:03:56;100937.22;;;14.76;71.24
43770;BME280;6597;52.218;9.882;2022-07-29T05:06:23;100941.19;;;14.85;71.21
43770;BME280;6597;52.218;9.882;2022-07-29T05:08:50;100946.94;;;14.93;70.70
43770;BME280;6597;52.218;9.882;2022-07-29T05:11:16;100939.66;;;14.98;71.09
43770;BME280;6597;52.218;9.882;2022-07-29T05:13:43;100932.34;;;15.03;70.40
43770;BME280;6597;52.218;9.882;2022-07-29T05:16:10;100928.44;;;15.10;70.49
43770;BME280;6597;52.218;9.882;2022-07-29T05:18:36;100930.38;;;15.24;69.76
43770;BME280;6597;52.218;9.882;2022-07-29T05:21:04;100924.88;;;15.29;69.81
43770;BME280;6597;52.218;9.882;2022-07-29T05:23:31;100923.78;;;15.33;70.13
43770;BME280;6597;52.218;9.882;2022-07-29T05:25:58;100919.09;;;15.38;70.15
43770;BME280;6597;52.218;9.882;2022-07-29T05:28:24;100930.13;;;15.46;69.48
43770;BME280;6597;52.218;9.882;2022-07-29T05:30:51;100926.44;;;15.48;67.73
43770;BME280;6597;52.218;9.882;2022-07-29T05:33:17;100929.72;;;15.53;67.72
43770;BME280;6597;52.218;9.882;2022-07-29T05:35:44;100928.41;;;15.62;68.39
43770;BME280;6597;52.218;9.882;2022-07-29T05:38:12;100923.47;;;15.72;68.64
43770;BME280;6597;52.218;9.882;2022-07-29T05:40:38;100915.97;;;15.80;67.46
43770;BME280;6597;52.218;9.882;2022-07-29T05:43:05;100918.38;;;15.84;66.82
43770;BME280;6597;52.218;9.882;2022-07-29T05:45:32;100916.56;;;15.85;66.01
43770;BME280;6597;52.218;9.882;2022-07-29T05:47:58;100917.25;;;15.88;65.69
43770;BME280;6597;52.218;9.882;2022-07-29T05:50:25;100910.84;;;15.93;66.20
43770;BME280;6597;52.218;9.882;2022-07-29T05:52:51;100902.78;;;15.96;65.38
43770;BME280;6597;52.218;9.882;2022-07-29T05:55:20;100912.09;;;16.03;65.65
43770;BME280;6597;52.218;9.882;2022-07-29T05:57:46;100912.69;;;16.08;65.17
43770;BME280;6597;52.218;9.882;2022-07-29T06:00:13;100903.78;;;16.09;65.29
43770;BME280;6597;52.218;9.882;2022-07-29T06:02:40;100914.47;;;16.07;64.51
43770;BME280;6597;52.218;9.882;2022-07-29T06:05:07;100914.56;;;16.06;65.18
43770;BME280;6597;52.218;9.882;2022-07-29T06:07:33;100922.25;;;16.10;65.97
43770;BME280;6597;52.218;9.882;2022-07-29T06:10:00;100925.41;;;16.17;65.26
43770;BME280;6597;52.218;9.882;2022-07-29T06:12:28;100922.56;;;16.20;65.11
43770;BME280;6597;52.218;9.882;2022-07-29T06:14:55;100922.41;;;16.23;65.48
43770;BME280;6597;52.218;9.882;2022-07-29T06:17:22;100921.22;;;16.29;64.88
43770;BME280;6597;52.218;9.882;2022-07-29T06:19:48;100919.25;;;16.32;65.45
43770;BME280;6597;52.218;9.882;2022-07-29T06:22:15;100920.88;;;16.35;65.47
43770;BME280;6597;52.218;9.882;2022-07-29T06:24:42;100912.31;;;16.45;65.08
43770;BME280;6597;52.218;9.882;2022-07-29T06:27:09;100915.81;;;16.62;64.61
43770;BME280;6597;52.218;9.882;2022-07-29T06:29:37;100907.00;;;16.77;63.93
43770;BME280;6597;52.218;9.882;2022-07-29T06:32:05;100911.41;;;16.92;64.31
43770;BME280;6597;52.218;9.882;2022-07-29T06:34:32;100903.84;;;17.00;62.19
43770;BME280;6597;52.218;9.882;2022-07-29T06:36:58;100906.31;;;17.03;62.63
43770;BME280;6597;52.218;9.882;2022-07-29T06:39:25;100900.72;;;17.08;63.08
43770;BME280;6597;52.218;9.882;2022-07-29T06:41:51;100904.81;;;17.14;62.59
43770;BME280;6597;52.218;9.882;2022-07-29T06:44:23;100906.44;;;17.16;61.92
43770;BME280;6597;52.218;9.882;2022-07-29T06:46:51;100912.31;;;17.21;62.67
43770;BME280;6597;52.218;9.882;2022-07-29T06:49:19;100915.28;;;17.31;62.44
43770;BME280;6597;52.218;9.882;2022-07-29T06:51:46;100917.94;;;17.45;62.01
43770;BME280;6597;52.218;9.882;2022-07-29T06:54:13;100911.91;;;17.57;62.20
43770;BME280;6597;52.218;9.882;2022-07-29T06:56:39;100911.31;;;17.66;61.42
43770;BME280;6597;52.218;9.882;2022-07-29T06:59:08;100903.66;;;17.76;59.87
43770;BME280;6597;52.218;9.882;2022-07-29T07:01:36;100895.59;;;17.78;60.28
43770;BME280;6597;52.218;9.882;2022-07-29T07:04:04;100900.22;;;17.88;60.21
43770;BME280;6597;52.218;9.882;2022-07-29T07:06:31;100903.56;;;17.92;59.38
43770;BME280;6597;52.218;9.882;2022-07-29T07:08:58;100903.63;;;18.04;59.76
43770;BME280;6597;52.218;9.882;2022-07-29T07:11:25;100902.63;;;18.20;58.84
43770;BME280;6597;52.218;9.882;2022-07-29T07:13:51;100908.63;;;18.23;57.77
43770;BME280;6597;52.218;9.882;2022-07-29T07:16:18;100901.88;;;18.18;58.61
43770;BME280;6597;52.218;9.882;2022-07-29T07:18:45;100902.34;;;18.24;59.33
43770;BME280;6597;52.218;9.882;2022-07-29T07:21:13;100905.47;;;18.31;58.01
43770;BME280;6597;52.218;9.882;2022-07-29T07:23:39;100895.19;;;18.39;58.14
43770;BME280;6597;52.218;9.882;2022-07-29T07:26:06;100896.47;;;18.46;57.45
43770;BME280;6597;52.218;9.882;2022-07-29T07:28:33;100896.91;;;18.53;57.96
43770;BME280;6597;52.218;9.882;2022-07-29T07:30:59;100899.88;;;18.62;58.30
43770;BME280;6597;52.218;9.882;2022-07-29T07:33:26;100904.88;;;18.67;57.59
43770;BME280;6597;52.218;9.882;2022-07-29T07:35:53;100906.38;;;18.71;57.13
43770;BME280;6597;52.218;9.882;2022-07-29T07:38:21;100906.19;;;18.74;56.04
43770;BME280;6597;52.218;9.882;2022-07-29T07:40:48;100913.75;;;18.80;56.72
43770;BME280;6597;52.218;9.882;2022-07-29T07:43:15;100914.84;;;18.90;57.35
43770;BME280;6597;52.218;9.882;2022-07-29T07:45:42;100908.47;;;19.06;57.50
43770;BME280;6597;52.218;9.882;2022-07-29T07:48:08;100899.66;;;19.18;55.39
43770;BME280;6597;52.218;9.882;2022-07-29T07:50:36;100904.38;;;19.27;55.28
43770;BME280;6597;52.218;9.882;2022-07-29T07:53:02;100909.91;;;19.37;55.28
43770;BME280;6597;52.218;9.882;2022-07-29T07:55:31;100903.91;;;19.46;54.80
43770;BME280;6597;52.218;9.882;2022-07-29T07:57:57;100899.94;;;19.53;53.79
43770;BME280;6597;52.218;9.882;2022-07-29T08:00:24;100897.47;;;19.63;54.56
43770;BME280;6597;52.218;9.882;2022-07-29T08:02:50;100900.72;;;19.79;53.80
43770;BME280;6597;52.218;9.882;2022-07-29T08:05:17;100899.44;;;19.97;53.41
43770;BME280;6597;52.218;9.882;2022-07-29T08:07:45;100897.16;;;20.16;53.27
43770;BME280;6597;52.218;9.882;2022-07-29T08:10:13;100890.41;;;20.24;52.35
43770;BME280;6597;52.218;9.882;2022-07-29T08:12:41;100894.53;;;20.28;51.50
43770;BME280;6597;52.218;9.882;2022-07-29T08:15:08;100894.44;;;20.29;52.15
43770;BME280;6597;52.218;9.882;2022-07-29T08:17:35;100894.44;;;20.29;51.97
43770;BME280;6597;52.218;9.882;2022-07-29T08:20:03;100907.69;;;20.18;52.09
43770;BME280;6597;52.218;9.882;2022-07-29T08:22:29;100900.00;;;20.13;51.82
43770;BME280;6597;52.218;9.882;2022-07-29T08:24:56;100890.41;;;20.11;52.45
43770;BME280;6597;52.218;9.882;2022-07-29T08:27:23;100890.88;;;20.05;52.23
43770;BME280;6597;52.218;9.882;2022-07-29T08:29:52;100897.56;;;20.10;52.61
43770;BME280;6597;52.218;9.882;2022-07-29T08:32:21;100896.59;;;20.11;52.35
43770;BME280;6597;52.218;9.882;2022-07-29T08:34:47;100899.59;;;20.07;52.38
43770;BME280;6597;52.218;9.882;2022-07-29T08:37:14;100901.09;;;20.11;52.98
43770;BME280;6597;52.218;9.882;2022-07-29T08:39:40;100903.41;;;20.15;52.76
43770;BME280;6597;52.218;9.882;2022-07-29T08:42:07;100901.91;;;20.24;51.80
43770;BME280;6597;52.218;9.882;2022-07-29T08:44:35;100897.44;;;20.25;52.88
43770;BME280;6597;52.218;9.882;2022-07-29T08:47:03;100902.19;;;20.32;52.81
43770;BME280;6597;52.218;9.882;2022-07-29T08:49:32;100897.25;;;20.39;52.06
43770;BME280;6597;52.218;9.882;2022-07-29T08:54:27;100899.81;;;20.53;51.91
43770;BME280;6597;52.218;9.882;2022-07-29T08:56:54;100906.38;;;20.60;51.98
43770;BME280;6597;52.218;9.882;2022-07-29T08:59:24;100901.06;;;20.71;51.95
43770;BME280;6597;52.218;9.882;2022-07-29T09:01:53;100899.94;;;20.87;51.81
43770;BME280;6597;52.218;9.882;2022-07-29T09:04:23;100899.13;;;21.08;50.99
43770;BME280;6597;52.218;9.882;2022-07-29T09:06:52;100901.88;;;21.31;50.01
43770;BME280;6597;52.218;9.882;2022-07-29T09:09:20;100898.66;;;21.61;49.94
43770;BME280;6597;52.218;9.882;2022-07-29T09:11:47;100897.19;;;21.90;49.32
43770;BME280;6597;52.218;9.882;2022-07-29T09:14:14;100900.09;;;22.10;49.25
43770;BME280;6597;52.218;9.882;2022-07-29T09:16:50;100889.22;;;22.33;47.89
43770;BME280;6597;52.218;9.882;2022-07-29T09:19:29;100887.88;;;22.39;47.34
43770;BME280;6597;52.218;9.882;2022-07-29T09:21:57;100887.88;;;22.39;47.37
43770;BME280;6597;52.218;9.882;2022-07-29T09:24:24;100885.19;;;22.39;48.18
43770;BME280;6597;52.218;9.882;2022-07-29T09:26:51;100877.53;;;22.34;46.65
43770;BME280;6597;52.218;9.882;2022-07-29T09:29:19;100886.34;;;22.25;47.64
43770;BME280;6597;52.218;9.882;2022-07-29T09:31:49;100887.06;;;22.27;47.17
43770;BME280;6597;52.218;9.882;2022-07-29T09:34:20;100877.94;;;22.30;47.56
43770;BME280;6597;52.218;9.882;2022-07-29T09:36:50;100887.25;;;22.47;46.60
43770;BME280;6597;52.218;9.882;2022-07-29T09:39:28;100886.09;;;22.60;47.11
43770;BME280;6597;52.218;9.882;2022-07-29T09:41:57;100880.41;;;22.75;46.61
43770;BME280;6597;52.218;9.882;2022-07-29T09:44:24;100873.38;;;22.74;46.56
43770;BME280;6597;52.218;9.882;2022-07-29T09:46:55;100867.91;;;22.75;46.84
43770;BME280;6597;52.218;9.882;2022-07-29T09:49:22;100860.38;;;22.69;46.90
43770;BME280;6597;52.218;9.882;2022-07-29T09:52:03;100868.09;;;22.62;47.08
43770;BME280;6597;52.218;9.882;2022-07-29T09:54:30;100865.41;;;22.62;47.51
43770;BME280;6597;52.218;9.882;2022-07-29T09:57:02;100864.63;;;22.72;47.44
43770;BME280;6597;52.218;9.882;2022-07-29T09:59:29;100860.84;;;22.74;46.95
43770;BME280;6597;52.218;9.882;2022-07-29T10:01:56;100854.16;;;22.80;47.31
43770;BME280;6597;52.218;9.882;2022-07-29T10:04:23;100849.28;;;22.74;47.09
43770;BME280;6597;52.218;9.882;2022-07-29T10:06:57;100850.84;;;22.76;47.08
43770;BME280;6597;52.218;9.882;2022-07-29T10:09:25;100855.22;;;22.88;46.87
43770;BME280;6597;52.218;9.882;2022-07-29T10:12:06;100842.59;;;23.00;46.46
43770;BME280;6597;52.218;9.882;2022-07-29T10:14:34;100844.03;;;23.04;46.85
43770;BME280;6597;52.218;9.882;2022-07-29T10:17:03;100841.56;;;23.12;46.43
43770;BME280;6597;52.218;9.882;2022-07-29T10:19:30;100854.13;;;23.12;46.51
43770;BME280;6597;52.218;9.882;2022-07-29T10:21:57;100842.72;;;23.19;47.05
43770;BME280;6597;52.218;9.882;2022-07-29T10:24:27;100845.03;;;23.34;46.21
43770;BME280;6597;52.218;9.882;2022-07-29T10:26:55;100842.16;;;23.46;45.77
43770;BME280;6597;52.218;9.882;2022-07-29T10:29:22;100848.59;;;23.65;45.50
43770;BME280;6597;52.218;9.882;2022-07-29T10:31:57;100852.56;;;23.70;44.80
43770;BME280;6597;52.218;9.882;2022-07-29T10:34:36;100843.72;;;23.79;44.59
43770;BME280;6597;52.218;9.882;2022-07-29T10:37:18;100844.28;;;23.83;43.91
43770;BME280;6597;52.218;9.882;2022-07-29T10:39:55;100852.19;;;23.84;43.96
43770;BME280;6597;52.218;9.882;2022-07-29T10:42:27;100844.88;;;23.86;43.66
43770;BME280;6597;52.218;9.882;2022-07-29T10:44:56;100840.06;;;23.80;44.00
43770;BME280;6597;52.218;9.882;2022-07-29T10:47:23;100841.47;;;23.84;44.38
43770;BME280;6597;52.218;9.882;2022-07-29T10:49:57;100846.00;;;23.84;43.74
43770;BME280;6597;52.218;9.882;2022-07-29T10:52:25;100843.75;;;23.89;43.46
43770;BME280;6597;52.218;9.882;2022-07-29T10:55:30;100839.09;;;23.91;43.96
43770;BME280;6597;52.218;9.882;2022-07-29T10:58:11;100837.13;;;23.93;44.21
43770;BME280;6597;52.218;9.882;2022-07-29T11:00:39;100838.94;;;23.93;43.26
43770;BME280;6597;52.218;9.882;2022-07-29T11:03:05;100839.25;;;23.99;43.71
43770;BME280;6597;52.218;9.882;2022-07-29T11:05:52;100837.13;;;24.03;44.09
43770;BME280;6597;52.218;9.882;2022-07-29T11:08:24;100832.09;;;24.09;43.32
43770;BME280;6597;52.218;9.882;2022-07-29T11:14:03;100832.09;;;24.09;44.03
43770;BME280;6597;52.218;9.882;2022-07-29T11:16:58;100842.94;;;24.08;43.43
43770;BME280;6597;52.218;9.882;2022-07-29T11:19:24;100834.47;;;24.12;42.42
43770;BME280;6597;52.218;9.882;2022-07-29T11:21:51;100835.88;;;24.07;43.14
43770;BME280;6597;52.218;9.882;2022-07-29T11:24:20;100829.66;;;24.06;43.47
43770;BME280;6597;52.218;9.882;2022-07-29T11:27:07;100828.56;;;24.09;43.27
43770;BME280;6597;52.218;9.882;2022-07-29T11:29:39;100828.00;;;24.15;43.78
43770;BME280;6597;52.218;9.882;2022-07-29T11:32:11;100823.06;;;24.20;43.29
43770;BME280;6597;52.218;9.882;2022-07-29T11:34:38;100826.28;;;24.24;43.02
43770;BME280;6597;52.218;9.882;2022-07-29T11:37:22;100821.78;;;24.24;43.43
43770;BME280;6597;52.218;9.882;2022-07-29T11:42:48;100827.44;;;24.21;43.03
43770;BME280;6597;52.218;9.882;2022-07-29T11:45:25;100829.81;;;24.24;43.23
43770;BME280;6597;52.218;9.882;2022-07-29T11:47:58;100828.59;;;24.28;42.63
43770;BME280;6597;52.218;9.882;2022-07-29T11:50:33;100819.56;;;24.29;43.12
43770;BME280;6597;52.218;9.882;2022-07-29T11:53:02;100819.13;;;24.34;43.83
43770;BME280;6597;52.218;9.882;2022-07-29T11:55:29;100823.34;;;24.36;43.46
43770;BME280;6597;52.218;9.882;2022-07-29T11:58:01;100819.16;;;24.43;43.01
43770;BME280;6597;52.218;9.882;2022-07-29T12:00:31;100820.97;;;24.52;43.12
43770;BME280;6597;52.218;9.882;2022-07-29T12:03:02;100824.22;;;24.56;42.93
43770;BME280;6597;52.218;9.882;2022-07-29T12:05:32;100824.91;;;24.58;42.03
43770;BME280;6597;52.218;9.882;2022-07-29T12:08:13;100819.25;;;24.61;42.42
43770;BME280;6597;52.218;9.882;2022-07-29T12:10:42;100813.47;;;24.66;41.79
43770;BME280;6597;52.218;9.882;2022-07-29T12:13:09;100815.31;;;24.75;42.69
43770;BME280;6597;52.218;9.882;2022-07-29T12:15:39;100819.63;;;24.95;42.47
43770;BME280;6597;52.218;9.882;2022-07-29T12:18:13;100816.78;;;25.16;42.37
43770;BME280;6597;52.218;9.882;2022-07-29T12:20:40;100814.59;;;25.39;41.44
43770;BME280;6597;52.218;9.882;2022-07-29T12:23:07;100808.88;;;25.52;40.91
43770;BME280;6597;52.218;9.882;2022-07-29T12:25:35;100800.91;;;25.69;40.84
43770;BME280;6597;52.218;9.882;2022-07-29T12:28:04;100808.91;;;25.79;40.67
43770;BME280;6597;52.218;9.882;2022-07-29T12:30:36;100806.50;;;25.76;40.10
43770;BME280;6597;52.218;9.882;2022-07-29T12:33:21;100808.44;;;25.84;40.84
43770;BME280;6597;52.218;9.882;2022-07-29T12:35:50;100810.44;;;25.82;40.03
43770;BME280;6597;52.218;9.882;2022-07-29T12:38:18;100802.13;;;25.75;39.77
43770;BME280;6597;52.218;9.882;2022-07-29T12:40:46;100804.97;;;25.73;39.46
43770;BME280;6597;52.218;9.882;2022-07-29T12:43:16;100805.41;;;25.69;40.24
43770;BME280;6597;52.218;9.882;2022-07-29T12:45:45;100804.28;;;25.71;40.22
43770;BME280;6597;52.218;9.882;2022-07-29T12:48:12;100813.34;;;25.70;41.58
43770;BME280;6597;52.218;9.882;2022-07-29T12:50:54;100802.59;;;25.70;39.80
43770;BME280;6597;52.218;9.882;2022-07-29T12:53:22;100803.44;;;25.71;40.54
43770;BME280;6597;52.218;9.882;2022-07-29T12:55:50;100797.16;;;25.80;40.92
43770;BME280;6597;52.218;9.882;2022-07-29T12:58:36;100800.69;;;25.98;40.96
43770;BME280;6597;52.218;9.882;2022-07-29T13:01:05;100798.25;;;26.05;39.53
43770;BME280;6597;52.218;9.882;2022-07-29T13:03:49;100791.94;;;26.14;39.92
43770;BME280;6597;52.218;9.882;2022-07-29T13:06:32;100789.19;;;26.06;38.73
43770;BME280;6597;52.218;9.882;2022-07-29T13:09:04;100787.09;;;26.00;39.73
43770;BME280;6597;52.218;9.882;2022-07-29T13:11:33;100791.09;;;25.96;39.42
43770;BME280;6597;52.218;9.882;2022-07-29T13:14:00;100791.38;;;25.93;39.92
43770;BME280;6597;52.218;9.882;2022-07-29T13:16:27;100789.69;;;25.92;39.93
43770;BME280;6597;52.218;9.882;2022-07-29T13:19:05;100789.47;;;25.85;40.26